Newington, New Hampshire
Current Conditions -  °F | °C
As of 9:23 AM on Sunday 25 Jan 2015 (Local Time) from KDAW Reporting Station
Light Snow Light Snow  
Wind Chill: 25°   Ceiling: 3300
Heat Index: 32°   Visibility: 1.7mi
Dew Point: 25°   Wind: 8mph
Humidity: 75%   Direction: 310°NW
Pressure: 29.48"   Gusts: NA
Location:  43.2364°N, 70.8206°W
Report Text: KDAW 251423Z AUTO 31007KT 1 3/4SM -SN FEW020 BKN033 OVC055 00/M04 A2948 RMK AO2 SNB19 PRESRR P0000 T00001039
Loading
Personal Weather Stations






























Interactive Weather Map New forecast layout! Learn more

10-Day Weather Forecast

Advertisements
Track Severe Weather on mobile